createdAt,value
2018-04-25T00:01:41.038Z,9.20
2018-04-25T00:04:07.438Z,9.10
2018-04-25T00:06:33.560Z,9.10
2018-04-25T00:08:59.806Z,9.10
2018-04-25T00:11:25.873Z,9.10
2018-04-25T00:13:52.661Z,9.10
2018-04-25T00:16:18.757Z,9.10
2018-04-25T00:18:45.561Z,9.20
2018-04-25T00:21:11.597Z,9.20
2018-04-25T00:23:37.677Z,9.20
2018-04-25T00:26:03.736Z,9.30
2018-04-25T00:28:30.525Z,9.30
2018-04-25T00:30:56.674Z,9.30
2018-04-25T00:33:22.714Z,9.30
2018-04-25T00:35:48.786Z,9.30
2018-04-25T00:38:15.159Z,9.30
2018-04-25T00:40:41.190Z,9.30
2018-04-25T00:43:07.964Z,9.30
2018-04-25T00:45:34.081Z,9.30
2018-04-25T00:48:00.085Z,9.30
2018-04-25T00:50:26.104Z,9.30
2018-04-25T00:52:52.140Z,9.30
2018-04-25T00:55:18.252Z,9.30
2018-04-25T00:57:44.303Z,9.40
2018-04-25T01:00:10.338Z,9.40
2018-04-25T01:02:36.396Z,9.40
2018-04-25T01:05:02.548Z,9.50
2018-04-25T01:07:28.614Z,9.40
2018-04-25T01:09:55.409Z,9.40
2018-04-25T01:12:21.545Z,9.40
2018-04-25T01:14:47.634Z,9.40
2018-04-25T01:17:14.414Z,9.50
2018-04-25T01:19:40.482Z,9.50
2018-04-25T01:22:06.522Z,9.50
2018-04-25T01:24:32.586Z,9.50
2018-04-25T01:27:02.519Z,9.60
2018-04-25T01:29:28.652Z,9.60
2018-04-25T01:31:55.609Z,9.60
2018-04-25T01:34:30.551Z,9.60
2018-04-25T01:36:57.593Z,9.70
2018-04-25T01:39:24.582Z,9.70
2018-04-25T01:41:50.647Z,9.80
2018-04-25T01:44:23.271Z,9.90
2018-04-25T01:46:50.301Z,9.90
2018-04-25T01:49:18.966Z,9.90
2018-04-25T01:51:57.255Z,9.90
2018-04-25T01:54:35.664Z,9.90
2018-04-25T01:57:14.127Z,10.00
2018-04-25T01:59:52.584Z,10.10
2018-04-25T02:02:18.506Z,10.20
2018-04-25T02:04:44.526Z,10.20
2018-04-25T02:07:10.545Z,10.20
2018-04-25T02:09:36.617Z,10.20
2018-04-25T02:12:03.130Z,10.20
2018-04-25T02:14:29.174Z,10.30
2018-04-25T02:16:55.240Z,10.30
2018-04-25T02:19:21.318Z,10.30
2018-04-25T02:21:47.395Z,10.40
2018-04-25T02:24:13.457Z,10.40
2018-04-25T02:26:39.493Z,10.40
2018-04-25T02:29:05.513Z,10.40
2018-04-25T02:31:31.587Z,10.50
2018-04-25T02:33:57.639Z,10.50
2018-04-25T02:36:23.669Z,10.50
2018-04-25T02:38:50.639Z,10.60
2018-04-25T02:41:16.705Z,10.60
2018-04-25T02:43:42.710Z,10.60
2018-04-25T02:46:08.793Z,10.60
2018-04-25T02:48:34.818Z,10.60
2018-04-25T02:51:00.819Z,10.60
2018-04-25T02:53:27.791Z,10.70
2018-04-25T02:55:53.841Z,10.70
2018-04-25T02:58:19.916Z,10.70
2018-04-25T03:00:46.061Z,10.70
2018-04-25T03:03:12.150Z,10.80
2018-04-25T03:05:38.286Z,10.80
2018-04-25T03:08:04.626Z,10.90
2018-04-25T03:10:30.654Z,11.00
2018-04-25T03:12:57.430Z,11.10
2018-04-25T03:15:23.501Z,11.10
2018-04-25T03:17:49.525Z,11.10
2018-04-25T03:20:15.580Z,11.20
2018-04-25T03:22:41.665Z,11.20
2018-04-25T03:25:07.706Z,11.20
2018-04-25T03:27:33.812Z,11.20
2018-04-25T03:29:59.880Z,11.20
2018-04-25T03:32:25.940Z,11.30
2018-04-25T03:34:51.964Z,11.30
2018-04-25T03:37:18.068Z,11.30
2018-04-25T03:39:44.183Z,11.40
2018-04-25T03:42:10.200Z,11.50
2018-04-25T03:44:36.485Z,11.50
2018-04-25T03:47:02.562Z,11.50
2018-04-25T03:49:28.672Z,11.50
2018-04-25T03:51:55.496Z,11.60
2018-04-25T03:54:21.546Z,11.50
2018-04-25T03:56:47.581Z,11.60
2018-04-25T03:59:13.693Z,11.60
2018-04-25T04:01:39.720Z,11.70
2018-04-25T04:04:05.766Z,11.70
2018-04-25T04:06:31.876Z,11.80
2018-04-25T04:08:57.906Z,11.80
2018-04-25T04:11:23.941Z,11.80
2018-04-25T04:13:50.255Z,11.80
2018-04-25T04:16:17.097Z,11.90
2018-04-25T04:18:43.124Z,11.90
2018-04-25T04:21:09.267Z,11.90
2018-04-25T04:23:35.324Z,12.00
2018-04-25T04:26:02.115Z,12.00
2018-04-25T04:28:28.725Z,12.00
2018-04-25T04:30:54.846Z,11.90
2018-04-25T04:33:20.892Z,12.00
2018-04-25T04:35:47.039Z,12.10
2018-04-25T04:38:13.118Z,12.10
2018-04-25T04:40:39.189Z,12.20
2018-04-25T04:43:05.322Z,12.20
2018-04-25T04:45:31.380Z,12.20
2018-04-25T04:47:57.443Z,12.30
2018-04-25T04:50:24.250Z,12.40
2018-04-25T04:52:50.314Z,12.40
2018-04-25T04:55:16.427Z,12.40
2018-04-25T04:57:42.477Z,12.50
2018-04-25T05:00:08.770Z,12.50
2018-04-25T05:02:34.819Z,12.60
2018-04-25T05:05:00.909Z,12.60
2018-04-25T05:07:26.980Z,12.60
2018-04-25T05:09:53.054Z,12.60
2018-04-25T05:12:19.189Z,12.70
2018-04-25T05:14:45.233Z,12.70
2018-04-25T05:17:11.296Z,12.80
2018-04-25T05:19:37.407Z,12.80
2018-04-25T05:22:03.470Z,12.90
2018-04-25T05:24:29.613Z,12.90
2018-04-25T05:26:55.678Z,12.90
2018-04-25T05:29:22.478Z,12.90
2018-04-25T05:31:48.597Z,12.90
2018-04-25T05:34:15.383Z,12.90
2018-04-25T05:36:41.434Z,12.90
2018-04-25T05:39:07.511Z,12.90
2018-04-25T05:41:33.582Z,12.90
2018-04-25T05:43:59.626Z,12.80
2018-04-25T05:46:25.694Z,12.90
2018-04-25T05:48:51.724Z,12.90
2018-04-25T05:51:17.921Z,13.00
2018-04-25T05:53:44.104Z,13.00
2018-04-25T05:56:10.282Z,13.00
2018-04-25T05:58:36.397Z,13.00
2018-04-25T06:01:03.242Z,13.00
2018-04-25T06:03:29.373Z,13.00
2018-04-25T06:05:55.533Z,13.10
2018-04-25T06:08:22.184Z,13.10
2018-04-25T06:10:49.038Z,13.00
2018-04-25T06:13:15.082Z,13.00
2018-04-25T06:15:41.156Z,13.00
2018-04-25T06:18:07.189Z,13.00
2018-04-25T06:20:33.397Z,12.90
2018-04-25T06:22:59.452Z,12.90
2018-04-25T06:25:25.553Z,12.90
2018-04-25T06:27:51.601Z,12.80
2018-04-25T06:30:17.723Z,12.80
2018-04-25T06:32:43.829Z,12.80
2018-04-25T06:35:09.834Z,12.90
2018-04-25T06:37:36.690Z,13.00
2018-04-25T06:40:03.651Z,13.00
2018-04-25T06:42:29.715Z,13.00
2018-04-25T06:44:55.861Z,13.20
2018-04-25T06:47:22.221Z,13.30
2018-04-25T06:49:48.476Z,13.40
2018-04-25T06:52:14.575Z,13.40
2018-04-25T06:54:40.613Z,13.50
2018-04-25T06:57:06.696Z,13.50
2018-04-25T06:59:32.800Z,13.60
2018-04-25T07:01:58.897Z,13.60
2018-04-25T07:04:26.723Z,13.90
2018-04-25T07:06:52.800Z,13.80
2018-04-25T07:09:19.007Z,13.90
2018-04-25T07:11:45.104Z,14.00
2018-04-25T07:14:11.216Z,14.10
2018-04-25T07:16:37.263Z,14.20
2018-04-25T07:19:04.218Z,14.30
2018-04-25T07:21:30.177Z,14.20
2018-04-25T07:23:56.377Z,14.40
2018-04-25T07:26:22.318Z,14.50
2018-04-25T07:28:48.262Z,14.30
2018-04-25T07:31:14.265Z,14.40
2018-04-25T07:33:40.233Z,14.40
2018-04-25T07:36:06.172Z,14.40
2018-04-25T07:38:32.901Z,14.30
2018-04-25T07:40:58.881Z,14.30
2018-04-25T07:43:24.841Z,14.10
2018-04-25T07:45:51.062Z,13.90
2018-04-25T07:48:17.080Z,14.10
2018-04-25T07:50:43.024Z,14.10
2018-04-25T07:53:09.733Z,14.10
2018-04-25T07:55:35.663Z,14.10
2018-04-25T07:58:01.680Z,14.40
2018-04-25T08:00:27.681Z,14.50
2018-04-25T08:02:53.638Z,14.40
2018-04-25T08:05:19.621Z,14.60
2018-04-25T08:07:45.611Z,14.70
2018-04-25T08:10:11.592Z,14.80
2018-04-25T08:12:43.712Z,14.90
2018-04-25T08:15:16.133Z,14.80
2018-04-25T08:17:48.146Z,14.80
2018-04-25T08:20:20.309Z,14.70
2018-04-25T08:22:46.334Z,14.50
2018-04-25T08:25:12.331Z,14.40
2018-04-25T08:27:38.292Z,14.60
2018-04-25T08:30:04.319Z,14.80
2018-04-25T08:32:30.276Z,14.90
2018-04-25T08:34:56.288Z,14.90
2018-04-25T08:37:22.255Z,14.80
2018-04-25T08:39:48.338Z,14.60
2018-04-25T08:42:14.323Z,14.70
2018-04-25T08:44:40.302Z,14.60
2018-04-25T08:47:06.305Z,14.80
2018-04-25T08:49:32.308Z,14.90
2018-04-25T08:51:58.300Z,14.90
2018-04-25T08:54:25.004Z,15.20
2018-04-25T08:56:51.118Z,15.20
2018-04-25T08:59:17.163Z,15.10
2018-04-25T09:01:43.108Z,15.10
2018-04-25T09:04:09.082Z,14.90
2018-04-25T09:06:35.031Z,14.80
2018-04-25T09:09:00.978Z,14.90
2018-04-25T09:11:27.723Z,14.70
2018-04-25T09:13:53.696Z,14.70
2018-04-25T09:16:19.706Z,14.70
2018-04-25T09:18:45.663Z,14.50
2018-04-25T09:21:11.653Z,14.50
2018-04-25T09:23:37.586Z,14.70
2018-04-25T09:26:03.628Z,14.70
2018-04-25T09:28:30.335Z,14.40
2018-04-25T09:30:56.278Z,14.40
2018-04-25T09:33:22.232Z,14.30
2018-04-25T09:35:48.360Z,14.30
2018-04-25T09:38:14.309Z,14.00
2018-04-25T09:40:40.239Z,13.80
2018-04-25T09:43:06.195Z,13.60
2018-04-25T09:45:32.920Z,13.10
2018-04-25T09:47:58.949Z,13.10
2018-04-25T09:50:24.980Z,12.90
2018-04-25T09:52:50.974Z,12.50
2018-04-25T09:55:16.922Z,12.20
2018-04-25T09:57:43.213Z,12.20
2018-04-25T10:00:09.820Z,12.20
2018-04-25T10:02:35.801Z,12.20
2018-04-25T10:05:01.767Z,12.20
2018-04-25T10:07:28.456Z,12.10
2018-04-25T10:09:54.397Z,12.10
2018-04-25T10:12:20.385Z,11.90
2018-04-25T10:14:47.136Z,11.30
2018-04-25T10:17:13.908Z,11.30
2018-04-25T10:19:39.912Z,11.20
2018-04-25T10:22:05.876Z,11.20
2018-04-25T10:24:31.830Z,11.30
2018-04-25T10:26:58.099Z,11.30
2018-04-25T10:29:24.148Z,11.40
2018-04-25T10:31:50.103Z,11.60
2018-04-25T10:34:16.057Z,11.80
2018-04-25T10:36:42.771Z,11.70
2018-04-25T10:39:08.724Z,11.70
2018-04-25T10:41:34.672Z,11.60
2018-04-25T10:44:01.359Z,11.70
2018-04-25T10:46:27.332Z,11.70
2018-04-25T10:48:54.077Z,11.40
2018-04-25T10:51:20.048Z,11.40
2018-04-25T10:53:46.026Z,11.40
2018-04-25T10:56:12.033Z,11.50
2018-04-25T10:58:38.730Z,11.50
2018-04-25T11:01:05.530Z,11.50
2018-04-25T11:03:31.503Z,11.30
2018-04-25T11:05:57.468Z,11.20
2018-04-25T11:08:23.485Z,11.30
2018-04-25T11:10:49.463Z,11.70
2018-04-25T11:13:16.561Z,11.70
2018-04-25T11:15:42.518Z,11.70
2018-04-25T11:18:08.452Z,11.40
2018-04-25T11:20:34.477Z,11.10
2018-04-25T11:23:00.409Z,10.90
2018-04-25T11:25:26.362Z,10.80
2018-04-25T11:27:52.788Z,11.00
2018-04-25T11:30:18.768Z,10.90
2018-04-25T11:32:44.728Z,11.00
2018-04-25T11:35:10.722Z,10.80
2018-04-25T11:37:36.643Z,10.70
2018-04-25T11:40:02.607Z,10.60
2018-04-25T11:42:28.615Z,10.70
2018-04-25T11:44:54.620Z,10.80
2018-04-25T11:47:20.641Z,10.70
2018-04-25T11:49:46.649Z,10.60
2018-04-25T11:52:12.659Z,10.50
2018-04-25T11:54:38.750Z,10.20
2018-04-25T11:57:05.017Z,10.30
2018-04-25T11:59:31.188Z,10.20
2018-04-25T12:01:57.249Z,10.30
2018-04-25T12:04:24.336Z,10.40
2018-04-25T12:06:51.179Z,10.00
2018-04-25T12:09:17.229Z,10.00
2018-04-25T12:11:44.179Z,10.00
2018-04-25T12:14:10.959Z,10.00
2018-04-25T12:16:37.035Z,10.00
2018-04-25T12:19:03.218Z,10.00
2018-04-25T12:21:30.003Z,10.10
2018-04-25T12:23:56.077Z,10.10
2018-04-25T12:26:22.168Z,10.10
2018-04-25T12:28:48.262Z,10.00
2018-04-25T12:31:15.141Z,10.10
2018-04-25T12:33:41.926Z,9.90
2018-04-25T12:36:08.097Z,9.90
2018-04-25T12:38:34.185Z,10.10
2018-04-25T12:41:00.266Z,10.10
2018-04-25T12:43:26.363Z,10.00
2018-04-25T12:45:52.484Z,10.00
2018-04-25T12:48:19.343Z,10.20
2018-04-25T12:50:46.526Z,10.20
2018-04-25T12:53:12.829Z,10.20
2018-04-25T12:55:38.901Z,10.20
2018-04-25T12:58:04.981Z,10.30
2018-04-25T13:00:31.075Z,10.30
2018-04-25T13:02:57.150Z,10.40
2018-04-25T13:05:23.236Z,10.50
2018-04-25T13:07:49.384Z,10.90
2018-04-25T13:10:15.461Z,11.10
2018-04-25T13:12:41.617Z,11.30
2018-04-25T13:15:07.726Z,11.30
2018-04-25T13:17:34.521Z,11.40
2018-04-25T13:20:00.593Z,11.40
2018-04-25T13:22:26.712Z,11.30
2018-04-25T13:24:52.806Z,11.30
2018-04-25T13:27:18.904Z,11.30
2018-04-25T13:29:44.989Z,11.20
2018-04-25T13:32:11.550Z,11.00
2018-04-25T13:34:37.724Z,11.00
2018-04-25T13:37:04.562Z,10.70
2018-04-25T13:39:30.674Z,10.60
2018-04-25T13:41:57.480Z,10.70
2018-04-25T13:44:24.759Z,10.80
2018-04-25T13:46:51.839Z,10.70
2018-04-25T13:49:17.824Z,10.80
2018-04-25T13:51:43.969Z,10.70
2018-04-25T13:54:09.993Z,10.70
2018-04-25T13:56:36.101Z,10.70
2018-04-25T13:59:02.188Z,10.70
2018-04-25T14:01:29.067Z,10.80
2018-04-25T14:03:55.146Z,10.80
2018-04-25T14:06:21.539Z,10.80
2018-04-25T14:08:48.388Z,10.60
2018-04-25T14:11:15.261Z,10.60
2018-04-25T14:13:41.342Z,10.60
2018-04-25T14:16:07.436Z,10.60
2018-04-25T14:18:33.500Z,10.60
2018-04-25T14:20:59.587Z,10.70
2018-04-25T14:23:25.637Z,10.80
2018-04-25T14:25:51.701Z,11.10
2018-04-25T14:28:17.811Z,11.30
2018-04-25T14:30:43.908Z,11.60
2018-04-25T14:33:10.094Z,11.50
2018-04-25T14:35:36.922Z,11.50
2018-04-25T14:38:03.106Z,11.50
2018-04-25T14:40:29.327Z,12.00
2018-04-25T14:42:55.412Z,12.20
2018-04-25T14:45:22.307Z,12.10
2018-04-25T14:47:48.443Z,12.10
2018-04-25T14:50:14.519Z,12.10
2018-04-25T14:52:40.645Z,12.00
2018-04-25T14:55:06.871Z,11.70
2018-04-25T14:57:33.690Z,11.60
2018-04-25T14:59:59.827Z,11.60
2018-04-25T15:02:25.990Z,11.80
2018-04-25T15:04:52.839Z,12.80
2018-04-25T15:07:18.985Z,12.80
2018-04-25T15:09:45.069Z,12.70
2018-04-25T15:12:11.117Z,13.00
2018-04-25T15:14:37.150Z,12.90
2018-04-25T15:17:03.205Z,12.50
2018-04-25T15:19:29.294Z,12.10
2018-04-25T15:21:56.118Z,12.10
2018-04-25T15:24:22.181Z,12.10
2018-04-25T15:26:48.309Z,12.30
2018-04-25T15:29:14.410Z,12.20
2018-04-25T15:31:40.460Z,12.20
2018-04-25T15:34:06.531Z,12.50
2018-04-25T15:36:33.387Z,12.90
2018-04-25T15:38:59.599Z,12.90
2018-04-25T15:41:25.661Z,13.10
2018-04-25T15:43:51.755Z,13.10
2018-04-25T15:46:17.833Z,12.90
2018-04-25T15:48:44.660Z,12.60
2018-04-25T15:51:10.742Z,12.60
2018-04-25T15:53:36.947Z,12.70
2018-04-25T15:56:03.094Z,12.50
2018-04-25T15:58:29.341Z,12.30
2018-04-25T16:00:55.544Z,12.20
2018-04-25T16:03:21.583Z,12.20
2018-04-25T16:05:47.666Z,12.10
2018-04-25T16:08:14.497Z,11.80
2018-04-25T16:10:47.798Z,11.80
2018-04-25T16:13:14.471Z,12.10
2018-04-25T16:15:40.674Z,12.20
2018-04-25T16:18:06.772Z,12.30
2018-04-25T16:20:33.626Z,12.50
2018-04-25T16:23:00.451Z,12.40
2018-04-25T16:25:26.503Z,12.40
2018-04-25T16:27:52.566Z,12.30
2018-04-25T16:30:19.505Z,12.20
2018-04-25T16:32:46.341Z,12.10
2018-04-25T16:35:12.417Z,12.10
2018-04-25T16:37:38.494Z,12.00
2018-04-25T16:40:04.582Z,12.10
2018-04-25T16:42:31.427Z,12.20
2018-04-25T16:44:57.516Z,12.20
2018-04-25T16:47:23.584Z,12.30
2018-04-25T16:49:49.684Z,12.20
2018-04-25T16:52:15.768Z,12.00
2018-04-25T16:54:41.823Z,11.70
2018-04-25T16:57:07.977Z,11.70
2018-04-25T16:59:33.992Z,11.60
2018-04-25T17:02:00.065Z,11.60
2018-04-25T17:04:26.162Z,11.50
2018-04-25T17:06:52.223Z,11.40
2018-04-25T17:09:18.321Z,11.30
2018-04-25T17:11:44.726Z,11.20
2018-04-25T17:14:10.870Z,11.20
2018-04-25T17:16:36.958Z,11.20
2018-04-25T17:19:03.088Z,11.20
2018-04-25T17:21:29.166Z,11.20
2018-04-25T17:23:55.949Z,11.20
2018-04-25T17:26:21.989Z,11.20
2018-04-25T17:28:49.231Z,11.20
2018-04-25T17:31:15.326Z,11.20
2018-04-25T17:33:41.392Z,11.10
2018-04-25T17:36:09.377Z,11.00
2018-04-25T17:38:35.591Z,11.00
2018-04-25T17:41:01.666Z,11.00
2018-04-25T17:43:27.758Z,11.10
2018-04-25T17:45:53.880Z,11.00
2018-04-25T17:48:20.079Z,11.00
2018-04-25T17:50:47.048Z,10.90
2018-04-25T17:53:13.038Z,10.90
2018-04-25T17:55:39.009Z,10.90
2018-04-25T17:58:05.725Z,10.80
2018-04-25T18:00:31.690Z,10.80
2018-04-25T18:02:58.430Z,10.80
2018-04-25T18:05:24.427Z,10.80
2018-04-25T18:07:50.439Z,10.80
2018-04-25T18:10:16.414Z,10.70
2018-04-25T18:12:42.626Z,10.70
2018-04-25T18:15:08.925Z,10.60
2018-04-25T18:17:34.980Z,10.40
2018-04-25T18:20:01.789Z,9.90
2018-04-25T18:22:27.878Z,9.90
2018-04-25T18:24:53.929Z,9.60
2018-04-25T18:27:20.098Z,9.40
2018-04-25T18:29:46.189Z,9.20
2018-04-25T18:32:12.335Z,8.90
2018-04-25T18:34:38.405Z,8.80
2018-04-25T18:37:04.713Z,8.70
2018-04-25T18:39:30.774Z,8.60
2018-04-25T18:41:56.849Z,8.60
2018-04-25T18:44:22.938Z,8.50
2018-04-25T18:46:49.036Z,8.50
2018-04-25T18:49:15.096Z,8.50
2018-04-25T18:51:41.956Z,8.30
2018-04-25T18:54:08.049Z,8.30
2018-04-25T18:56:34.136Z,8.20
2018-04-25T18:59:00.230Z,8.10
2018-04-25T19:01:26.314Z,8.10
2018-04-25T19:03:52.468Z,8.00
2018-04-25T19:06:18.595Z,7.90
2018-04-25T19:08:44.925Z,7.90
2018-04-25T19:11:11.801Z,7.90
2018-04-25T19:13:37.898Z,7.80
2018-04-25T19:16:04.722Z,7.90
2018-04-25T19:18:30.765Z,7.80
2018-04-25T19:20:56.871Z,7.90
2018-04-25T19:23:24.076Z,7.90
2018-04-25T19:25:50.274Z,8.00
2018-04-25T19:28:16.448Z,8.00
2018-04-25T19:30:42.523Z,8.10
2018-04-25T19:33:10.820Z,8.10
2018-04-25T19:35:36.895Z,8.10
2018-04-25T19:38:02.968Z,8.20
2018-04-25T19:40:29.059Z,8.20
2018-04-25T19:42:55.138Z,8.20
2018-04-25T19:45:21.314Z,8.20
2018-04-25T19:47:48.184Z,8.20
2018-04-25T19:50:14.330Z,8.20
2018-04-25T19:52:40.417Z,8.20
2018-04-25T19:55:07.254Z,8.20
2018-04-25T19:57:33.447Z,8.20
2018-04-25T19:59:59.592Z,8.20
2018-04-25T20:02:25.629Z,8.20
2018-04-25T20:04:51.693Z,8.10
2018-04-25T20:07:17.756Z,8.20
2018-04-25T20:09:43.829Z,8.10
2018-04-25T20:12:10.646Z,8.00
2018-04-25T20:14:36.719Z,8.00
2018-04-25T20:17:03.789Z,8.00
2018-04-25T20:19:29.811Z,8.00
2018-04-25T20:21:55.875Z,8.00
2018-04-25T20:24:21.938Z,7.90
2018-04-25T20:26:48.001Z,7.90
2018-04-25T20:29:14.080Z,8.00
2018-04-25T20:31:40.867Z,8.00
2018-04-25T20:34:06.934Z,8.00
2018-04-25T20:36:33.075Z,8.00
2018-04-25T20:38:59.155Z,8.00
2018-04-25T20:41:25.199Z,8.00
2018-04-25T20:43:51.262Z,8.00
2018-04-25T20:46:17.376Z,8.00
2018-04-25T20:48:43.451Z,8.00
2018-04-25T20:51:09.535Z,8.10
2018-04-25T20:53:36.366Z,8.10
2018-04-25T20:56:03.260Z,8.10
2018-04-25T20:58:29.313Z,8.10
2018-04-25T21:00:55.366Z,8.10
2018-04-25T21:03:21.575Z,8.00
2018-04-25T21:05:47.753Z,8.00
2018-04-25T21:08:14.262Z,8.00
2018-04-25T21:10:40.345Z,7.90
2018-04-25T21:13:08.530Z,7.90
2018-04-25T21:15:34.674Z,7.90
2018-04-25T21:18:00.719Z,7.90
2018-04-25T21:20:26.886Z,7.90
2018-04-25T21:22:54.114Z,7.80
2018-04-25T21:25:20.234Z,7.70
2018-04-25T21:27:46.347Z,7.70
2018-04-25T21:30:12.474Z,7.70
2018-04-25T21:32:38.553Z,7.70
2018-04-25T21:35:04.887Z,7.70
2018-04-25T21:37:30.941Z,7.70
2018-04-25T21:39:57.058Z,7.70
2018-04-25T21:42:23.097Z,7.70
2018-04-25T21:44:49.165Z,7.70
2018-04-25T21:47:16.926Z,7.50
2018-04-25T21:49:43.015Z,7.50
2018-04-25T21:52:09.903Z,7.50
2018-04-25T21:54:36.004Z,7.40
2018-04-25T21:57:02.090Z,7.40
2018-04-25T21:59:28.167Z,7.30
2018-04-25T22:01:54.254Z,7.30
2018-04-25T22:04:20.358Z,7.30
2018-04-25T22:06:47.240Z,7.20
2018-04-25T22:09:13.333Z,7.20
2018-04-25T22:11:39.376Z,7.20
2018-04-25T22:14:05.415Z,7.10
2018-04-25T22:16:32.215Z,7.00
2018-04-25T22:18:58.294Z,7.00
2018-04-25T22:21:24.378Z,7.10
2018-04-25T22:23:50.429Z,7.00
2018-04-25T22:26:16.488Z,6.90
2018-04-25T22:28:42.531Z,6.90
2018-04-25T22:31:08.572Z,6.90
2018-04-25T22:33:34.680Z,6.80
2018-04-25T22:36:00.730Z,6.80
2018-04-25T22:38:27.054Z,6.80
2018-04-25T22:40:53.090Z,6.70
2018-04-25T22:43:19.205Z,6.70
2018-04-25T22:45:45.266Z,6.70
2018-04-25T22:48:11.344Z,6.60
2018-04-25T22:50:37.436Z,6.60
2018-04-25T22:53:03.578Z,6.60
2018-04-25T22:55:29.749Z,6.60
2018-04-25T22:57:55.828Z,6.60
2018-04-25T23:00:22.608Z,6.60
2018-04-25T23:02:48.740Z,6.60
2018-04-25T23:05:14.828Z,6.60
2018-04-25T23:07:40.876Z,6.60
2018-04-25T23:10:06.980Z,6.60
2018-04-25T23:12:33.026Z,6.60
2018-04-25T23:14:59.119Z,6.60
2018-04-25T23:17:25.202Z,6.60
2018-04-25T23:19:51.286Z,6.60
2018-04-25T23:22:17.395Z,6.50
2018-04-25T23:24:43.528Z,6.40
2018-04-25T23:27:09.685Z,6.50
2018-04-25T23:29:35.886Z,6.50
2018-04-25T23:32:01.953Z,6.50
2018-04-25T23:34:28.743Z,6.40
2018-04-25T23:36:55.554Z,6.50
2018-04-25T23:39:22.432Z,6.50
2018-04-25T23:41:48.587Z,6.50
2018-04-25T23:44:15.398Z,6.50
2018-04-25T23:46:41.514Z,6.50
2018-04-25T23:49:07.567Z,6.60
2018-04-25T23:51:33.717Z,6.50
2018-04-25T23:53:59.761Z,6.60
2018-04-25T23:56:25.830Z,6.50
2018-04-25T23:58:52.200Z,6.50
